createdAt,value
2019-03-27T00:01:42.358Z,99.90
2019-03-27T00:04:08.830Z,99.90
2019-03-27T00:06:35.242Z,99.90
2019-03-27T00:09:01.870Z,99.90
2019-03-27T00:11:28.251Z,99.90
2019-03-27T00:13:54.750Z,99.90
2019-03-27T00:16:21.181Z,99.90
2019-03-27T00:18:47.664Z,99.90
2019-03-27T00:21:14.136Z,99.90
2019-03-27T00:23:40.607Z,99.90
2019-03-27T00:26:06.994Z,99.90
2019-03-27T00:28:33.447Z,99.90
2019-03-27T00:30:59.889Z,99.90
2019-03-27T00:33:26.367Z,99.90
2019-03-27T00:35:52.827Z,99.90
2019-03-27T00:38:19.407Z,99.90
2019-03-27T00:40:45.904Z,99.90
2019-03-27T00:43:12.521Z,99.90
2019-03-27T00:45:39.032Z,99.90
2019-03-27T00:48:05.602Z,99.90
2019-03-27T00:50:31.991Z,99.90
2019-03-27T00:52:58.563Z,99.90
2019-03-27T00:55:25.040Z,99.90
2019-03-27T00:57:51.415Z,99.90
2019-03-27T01:00:27.434Z,99.90
2019-03-27T01:02:53.896Z,99.90
2019-03-27T01:05:21.967Z,99.90
2019-03-27T01:07:48.407Z,99.90
2019-03-27T01:10:14.885Z,99.90
2019-03-27T01:12:41.277Z,99.90
2019-03-27T01:15:07.873Z,99.90
2019-03-27T01:17:34.314Z,99.90
2019-03-27T01:20:00.834Z,99.90
2019-03-27T01:22:27.385Z,99.90
2019-03-27T01:24:53.848Z,99.90
2019-03-27T01:27:20.167Z,99.90
2019-03-27T01:29:46.710Z,99.90
2019-03-27T01:32:13.142Z,99.90
2019-03-27T01:34:39.733Z,99.90
2019-03-27T01:37:06.197Z,99.90
2019-03-27T01:39:33.417Z,99.90
2019-03-27T01:41:59.936Z,99.90
2019-03-27T01:44:26.497Z,99.90
2019-03-27T01:46:52.982Z,99.90
2019-03-27T01:49:19.293Z,99.90
2019-03-27T01:51:45.777Z,99.90
2019-03-27T01:54:12.281Z,99.90
2019-03-27T01:56:38.683Z,99.90
2019-03-27T01:59:05.100Z,99.90
2019-03-27T02:01:31.642Z,99.90
2019-03-27T02:03:58.055Z,99.90
2019-03-27T02:06:24.305Z,99.90
2019-03-27T02:08:52.592Z,99.90
2019-03-27T02:11:19.229Z,99.90
2019-03-27T02:13:45.764Z,99.90
2019-03-27T02:16:12.138Z,99.90
2019-03-27T02:18:38.584Z,99.90
2019-03-27T02:21:05.042Z,99.90
2019-03-27T02:23:31.313Z,99.90
2019-03-27T02:25:57.809Z,99.90
2019-03-27T02:28:24.381Z,99.90
2019-03-27T02:30:50.881Z,99.90
2019-03-27T02:33:17.354Z,99.90
2019-03-27T02:35:43.845Z,99.90
2019-03-27T02:38:10.259Z,99.90
2019-03-27T02:40:36.741Z,99.90
2019-03-27T02:43:03.222Z,99.90
2019-03-27T02:45:29.692Z,99.90
2019-03-27T02:47:55.990Z,99.90
2019-03-27T02:50:22.623Z,99.90
2019-03-27T02:52:49.112Z,99.90
2019-03-27T02:55:15.389Z,99.90
2019-03-27T02:57:41.905Z,99.90
2019-03-27T03:00:10.575Z,99.90
2019-03-27T03:02:37.179Z,99.90
2019-03-27T03:05:06.611Z,99.90
2019-03-27T03:07:33.222Z,99.90
2019-03-27T03:09:59.815Z,99.90
2019-03-27T03:12:26.302Z,99.90
2019-03-27T03:14:52.765Z,99.90
2019-03-27T03:17:19.378Z,99.90
2019-03-27T03:19:45.732Z,99.90
2019-03-27T03:22:12.192Z,99.90
2019-03-27T03:24:38.668Z,99.90
2019-03-27T03:27:05.238Z,99.90
2019-03-27T03:29:31.605Z,99.90
2019-03-27T03:31:58.006Z,99.90
2019-03-27T03:34:24.484Z,99.90
2019-03-27T03:36:50.936Z,99.90
2019-03-27T03:39:17.460Z,99.90
2019-03-27T03:41:43.820Z,99.90
2019-03-27T03:44:10.207Z,99.90
2019-03-27T03:46:36.673Z,99.90
2019-03-27T03:49:03.141Z,99.90
2019-03-27T03:51:29.669Z,99.90
2019-03-27T03:53:56.128Z,99.90
2019-03-27T03:56:23.685Z,99.90
2019-03-27T03:58:51.278Z,99.90
2019-03-27T04:01:18.699Z,99.90
2019-03-27T04:03:46.920Z,99.90
2019-03-27T04:06:13.344Z,99.90
2019-03-27T04:08:40.024Z,99.90
2019-03-27T04:11:06.416Z,99.90
2019-03-27T04:13:32.922Z,99.90
2019-03-27T04:15:59.484Z,99.90
2019-03-27T04:18:25.840Z,99.90
2019-03-27T04:20:52.221Z,99.90
2019-03-27T04:23:18.532Z,99.90
2019-03-27T04:26:08.441Z,99.90
2019-03-27T04:28:12.994Z,99.90
2019-03-27T04:30:39.375Z,99.90
2019-03-27T04:33:05.661Z,99.90
2019-03-27T04:35:31.975Z,99.90
2019-03-27T04:37:59.854Z,99.90
2019-03-27T04:40:26.359Z,99.90
2019-03-27T04:42:52.932Z,99.90
2019-03-27T04:45:19.445Z,99.90
2019-03-27T04:47:46.024Z,99.90
2019-03-27T04:50:12.636Z,99.90
2019-03-27T04:52:39.120Z,99.90
2019-03-27T04:55:05.817Z,99.90
2019-03-27T04:57:33.857Z,99.90
2019-03-27T05:00:00.425Z,99.90
2019-03-27T05:02:26.702Z,99.90
2019-03-27T05:04:53.211Z,99.90
2019-03-27T05:07:19.665Z,99.90
2019-03-27T05:09:46.154Z,99.90
2019-03-27T05:12:12.603Z,99.90
2019-03-27T05:14:39.090Z,99.90
2019-03-27T05:17:05.462Z,99.90
2019-03-27T05:19:31.894Z,99.90
2019-03-27T05:21:58.394Z,99.90
2019-03-27T05:24:24.939Z,99.90
2019-03-27T05:26:51.274Z,99.90
2019-03-27T05:29:17.795Z,99.90
2019-03-27T05:31:44.258Z,99.90
2019-03-27T05:34:10.724Z,99.90
2019-03-27T05:36:37.111Z,99.90
2019-03-27T05:39:04.773Z,99.90
2019-03-27T05:41:31.394Z,99.90
2019-03-27T05:43:57.911Z,99.90
2019-03-27T05:46:26.574Z,99.90
2019-03-27T05:48:52.654Z,99.90
2019-03-27T05:51:19.074Z,99.90
2019-03-27T05:53:45.716Z,99.90
2019-03-27T05:56:12.265Z,99.90
2019-03-27T05:58:38.699Z,99.90
2019-03-27T06:01:05.115Z,99.90
2019-03-27T06:03:31.580Z,99.90
2019-03-27T06:05:58.103Z,99.90
2019-03-27T06:08:24.463Z,99.90
2019-03-27T06:10:50.823Z,99.90
2019-03-27T06:13:17.484Z,99.90
2019-03-27T06:15:45.225Z,99.90
2019-03-27T06:18:13.193Z,99.90
2019-03-27T06:20:40.228Z,99.90
2019-03-27T06:23:06.682Z,99.90
2019-03-27T06:25:33.133Z,99.90
2019-03-27T06:27:59.605Z,99.90
2019-03-27T06:30:26.094Z,99.90
2019-03-27T06:32:52.734Z,99.90
2019-03-27T06:35:20.267Z,99.90
2019-03-27T06:37:46.876Z,99.90
2019-03-27T06:40:13.388Z,99.90
2019-03-27T06:42:39.795Z,99.90
2019-03-27T06:45:07.482Z,99.90
2019-03-27T06:47:33.959Z,99.90
2019-03-27T06:50:00.582Z,99.90
2019-03-27T06:52:27.135Z,99.90
2019-03-27T06:54:54.040Z,99.90
2019-03-27T06:57:20.538Z,99.90
2019-03-27T06:59:47.120Z,99.90
2019-03-27T07:02:13.596Z,99.90
2019-03-27T07:04:40.199Z,99.90
2019-03-27T07:07:06.713Z,99.90
2019-03-27T07:09:33.190Z,99.90
2019-03-27T07:11:59.760Z,99.90
2019-03-27T07:14:26.233Z,99.90
2019-03-27T07:16:52.867Z,99.90
2019-03-27T07:19:19.233Z,99.90
2019-03-27T07:21:45.780Z,99.90
2019-03-27T07:24:12.419Z,99.90
2019-03-27T07:26:38.958Z,99.90
2019-03-27T07:29:05.594Z,99.90
2019-03-27T07:31:32.061Z,99.90
2019-03-27T07:33:58.730Z,99.90
2019-03-27T07:36:25.102Z,99.90
2019-03-27T07:38:51.755Z,99.90
2019-03-27T07:41:18.141Z,99.90
2019-03-27T07:43:44.686Z,99.90
2019-03-27T07:46:11.206Z,99.90
2019-03-27T07:48:37.805Z,99.90
2019-03-27T07:51:04.280Z,99.90
2019-03-27T07:53:30.911Z,99.90
2019-03-27T07:55:57.498Z,99.90
2019-03-27T07:58:24.117Z,99.90
2019-03-27T08:00:50.737Z,99.90
2019-03-27T08:03:17.121Z,99.90
2019-03-27T08:05:43.625Z,99.90
2019-03-27T08:08:10.240Z,99.90
2019-03-27T08:10:36.669Z,99.30
2019-03-27T08:13:04.358Z,98.90
2019-03-27T08:15:30.865Z,98.30
2019-03-27T08:17:57.397Z,99.10
2019-03-27T08:20:23.761Z,98.30
2019-03-27T08:22:50.241Z,98.10
2019-03-27T08:25:16.817Z,97.70
2019-03-27T08:27:43.371Z,97.70
2019-03-27T08:30:12.205Z,96.50
2019-03-27T08:32:38.695Z,95.70
2019-03-27T08:35:05.802Z,96.90
2019-03-27T08:37:32.298Z,97.90
2019-03-27T08:39:58.806Z,97.20
2019-03-27T08:42:25.258Z,94.60
2019-03-27T08:44:51.765Z,93.50
2019-03-27T08:47:18.262Z,92.50
2019-03-27T08:49:44.792Z,93.90
2019-03-27T08:52:11.427Z,93.00
2019-03-27T08:54:37.946Z,92.00
2019-03-27T08:57:04.343Z,91.80
2019-03-27T08:59:30.735Z,91.20
2019-03-27T09:01:57.131Z,89.40
2019-03-27T09:04:23.631Z,87.90
2019-03-27T09:06:50.234Z,86.40
2019-03-27T09:09:17.910Z,86.40
2019-03-27T09:11:44.319Z,85.00
2019-03-27T09:14:10.890Z,85.10
2019-03-27T09:16:37.513Z,84.10
2019-03-27T09:19:04.965Z,81.50
2019-03-27T09:21:31.426Z,80.20
2019-03-27T09:23:57.775Z,79.20
2019-03-27T09:26:24.138Z,80.60
2019-03-27T09:28:50.749Z,80.40
2019-03-27T09:31:17.166Z,83.50
2019-03-27T09:33:43.649Z,86.00
2019-03-27T09:36:10.264Z,87.90
2019-03-27T09:38:36.866Z,90.20
2019-03-27T09:41:03.350Z,90.60
2019-03-27T09:43:29.769Z,92.10
2019-03-27T09:45:56.302Z,93.10
2019-03-27T09:48:22.834Z,94.20
2019-03-27T09:50:49.438Z,95.20
2019-03-27T09:53:16.000Z,95.10
2019-03-27T09:55:42.457Z,96.00
2019-03-27T09:58:09.096Z,97.10
2019-03-27T10:00:45.076Z,98.00
2019-03-27T10:03:11.456Z,98.80
2019-03-27T10:05:37.965Z,99.70
2019-03-27T10:08:04.826Z,99.90
2019-03-27T10:10:31.419Z,99.90
2019-03-27T10:12:58.137Z,99.90
2019-03-27T10:15:24.709Z,99.90
2019-03-27T10:17:51.319Z,99.90
2019-03-27T10:20:17.795Z,99.90
2019-03-27T10:22:44.274Z,99.90
2019-03-27T10:25:10.892Z,99.90
2019-03-27T10:27:37.537Z,99.90
2019-03-27T10:30:05.643Z,99.90
2019-03-27T10:32:33.530Z,99.90
2019-03-27T10:35:00.462Z,99.90
2019-03-27T10:37:26.999Z,99.90
2019-03-27T10:39:53.465Z,99.90
2019-03-27T10:42:20.186Z,99.90
2019-03-27T10:44:46.697Z,99.90
2019-03-27T10:47:13.368Z,99.90
2019-03-27T10:49:39.924Z,99.90
2019-03-27T10:52:08.194Z,99.90
2019-03-27T10:54:35.012Z,99.90
2019-03-27T10:57:01.381Z,99.90
2019-03-27T10:59:27.949Z,99.90
2019-03-27T11:01:54.336Z,99.90
2019-03-27T11:04:21.081Z,99.90
2019-03-27T11:06:47.598Z,99.90
2019-03-27T11:09:14.137Z,99.90
2019-03-27T11:11:40.489Z,99.90
2019-03-27T11:14:07.140Z,99.90
2019-03-27T11:16:33.614Z,99.90
2019-03-27T11:19:01.085Z,99.90
2019-03-27T11:21:27.498Z,99.90
2019-03-27T11:23:53.936Z,99.90
2019-03-27T11:26:20.563Z,99.90
2019-03-27T11:28:47.013Z,99.90
2019-03-27T11:31:14.468Z,99.90
2019-03-27T11:33:41.107Z,99.90
2019-03-27T11:36:07.716Z,99.90
2019-03-27T11:38:37.293Z,99.90
2019-03-27T11:41:02.637Z,99.90
2019-03-27T11:43:29.024Z,99.90
2019-03-27T11:45:55.485Z,99.90
2019-03-27T11:48:21.926Z,99.90
2019-03-27T11:50:48.619Z,99.90
2019-03-27T11:53:15.343Z,99.90
2019-03-27T11:55:41.745Z,99.90
2019-03-27T11:58:08.653Z,99.90
2019-03-27T12:00:35.213Z,99.90
2019-03-27T12:03:04.865Z,99.90
2019-03-27T12:05:31.533Z,99.90
2019-03-27T12:07:58.034Z,99.90
2019-03-27T12:10:24.848Z,99.90
2019-03-27T12:12:51.401Z,99.90
2019-03-27T12:15:27.751Z,99.90
2019-03-27T12:17:56.336Z,99.90
2019-03-27T12:20:23.089Z,99.90
2019-03-27T12:22:57.609Z,99.90
2019-03-27T12:25:18.018Z,99.90
2019-03-27T12:27:44.503Z,99.90
2019-03-27T12:30:11.281Z,99.90
2019-03-27T12:32:38.193Z,99.90
2019-03-27T12:35:04.691Z,99.90
2019-03-27T12:37:31.332Z,99.90
2019-03-27T12:39:57.973Z,99.90
2019-03-27T12:42:24.685Z,99.90
2019-03-27T12:44:51.248Z,99.90
2019-03-27T12:47:17.606Z,99.90
2019-03-27T12:49:44.182Z,99.90
2019-03-27T12:52:10.715Z,99.90
2019-03-27T12:54:37.225Z,99.90
2019-03-27T12:57:04.155Z,99.90
2019-03-27T12:59:30.545Z,99.90
2019-03-27T13:01:57.274Z,99.90
2019-03-27T13:04:23.893Z,99.90
2019-03-27T13:06:50.503Z,99.90
2019-03-27T13:09:17.183Z,99.90
2019-03-27T13:11:43.756Z,99.50
2019-03-27T13:14:10.292Z,99.40
2019-03-27T13:16:36.598Z,99.10
2019-03-27T13:19:03.105Z,98.90
2019-03-27T13:21:29.637Z,98.20
2019-03-27T13:23:56.033Z,97.90
2019-03-27T13:26:22.567Z,96.90
2019-03-27T13:28:49.394Z,96.20
2019-03-27T13:31:21.609Z,96.00
2019-03-27T13:33:50.396Z,96.00
2019-03-27T13:36:16.781Z,96.30
2019-03-27T13:38:43.355Z,96.60
2019-03-27T13:41:16.592Z,96.90
2019-03-27T13:43:49.594Z,97.50
2019-03-27T13:46:27.663Z,98.30
2019-03-27T13:48:57.524Z,99.40
2019-03-27T13:51:24.947Z,99.90
2019-03-27T13:53:51.390Z,99.90
2019-03-27T13:56:18.108Z,99.90
2019-03-27T13:58:44.762Z,99.90
2019-03-27T14:01:12.942Z,99.90
2019-03-27T14:03:41.376Z,99.90
2019-03-27T14:06:07.956Z,99.90
2019-03-27T14:08:34.607Z,99.90
2019-03-27T14:11:01.084Z,99.90
2019-03-27T14:13:27.594Z,99.90
2019-03-27T14:15:54.264Z,99.90
2019-03-27T14:18:20.785Z,99.90
2019-03-27T14:20:49.360Z,99.90
2019-03-27T14:23:15.809Z,99.90
2019-03-27T14:25:42.329Z,99.90
2019-03-27T14:28:08.833Z,99.90
2019-03-27T14:30:48.786Z,99.90
2019-03-27T14:33:15.340Z,99.90
2019-03-27T14:35:41.909Z,99.90
2019-03-27T14:38:08.299Z,99.90
2019-03-27T14:40:34.703Z,99.90
2019-03-27T14:43:01.183Z,99.90
2019-03-27T14:45:27.716Z,99.90
2019-03-27T14:47:54.168Z,99.90
2019-03-27T14:50:20.786Z,99.90
2019-03-27T14:52:47.311Z,99.90
2019-03-27T14:55:14.048Z,99.90
2019-03-27T14:57:40.416Z,99.90
2019-03-27T15:00:08.569Z,99.90
2019-03-27T15:02:35.139Z,99.90
2019-03-27T15:05:01.932Z,99.90
2019-03-27T15:07:28.521Z,99.90
2019-03-27T15:09:55.062Z,99.90
2019-03-27T15:12:21.596Z,99.90
2019-03-27T15:14:48.138Z,99.90
2019-03-27T15:17:14.569Z,99.90
2019-03-27T15:19:41.193Z,99.90
2019-03-27T15:22:21.430Z,99.90
2019-03-27T15:24:35.803Z,99.90
2019-03-27T15:27:02.351Z,99.90
2019-03-27T15:29:28.836Z,99.90
2019-03-27T15:31:55.405Z,99.90
2019-03-27T15:34:23.628Z,99.90
2019-03-27T15:36:50.349Z,99.90
2019-03-27T15:39:16.840Z,99.90
2019-03-27T15:41:43.315Z,99.90
2019-03-27T15:44:09.633Z,99.90
2019-03-27T15:46:36.225Z,99.90
2019-03-27T15:49:02.732Z,99.90
2019-03-27T15:51:29.104Z,99.90
2019-03-27T15:53:55.730Z,99.90
2019-03-27T15:56:22.228Z,99.90
2019-03-27T15:58:48.520Z,99.90
2019-03-27T16:01:15.045Z,99.90
2019-03-27T16:03:41.489Z,99.90
2019-03-27T16:06:08.092Z,99.90
2019-03-27T16:08:34.560Z,99.90
2019-03-27T16:11:01.199Z,99.90
2019-03-27T16:13:27.715Z,99.90
2019-03-27T16:15:55.720Z,99.90
2019-03-27T16:18:22.354Z,99.90
2019-03-27T16:20:50.282Z,99.90
2019-03-27T16:23:16.793Z,99.90
2019-03-27T16:25:43.362Z,99.90
2019-03-27T16:28:09.731Z,99.90
2019-03-27T16:30:36.210Z,99.90
2019-03-27T16:33:02.739Z,99.90
2019-03-27T16:35:29.266Z,99.90
2019-03-27T16:37:55.895Z,99.90
2019-03-27T16:40:42.398Z,99.90
2019-03-27T16:43:09.095Z,99.90
2019-03-27T16:45:36.488Z,99.90
2019-03-27T16:48:03.156Z,99.90
2019-03-27T16:50:29.622Z,99.90
2019-03-27T16:53:03.465Z,99.90
2019-03-27T16:55:24.404Z,99.90
2019-03-27T16:57:51.437Z,99.90
2019-03-27T17:00:18.088Z,99.90
2019-03-27T17:02:45.653Z,99.90
2019-03-27T17:05:15.671Z,99.90
2019-03-27T17:07:40.530Z,99.90
2019-03-27T17:10:07.328Z,99.90
2019-03-27T17:12:33.750Z,99.90
2019-03-27T17:15:01.863Z,99.90
2019-03-27T17:17:28.323Z,99.90
2019-03-27T17:19:55.116Z,99.90
2019-03-27T17:22:22.009Z,99.90
2019-03-27T17:24:48.384Z,99.90
2019-03-27T17:27:14.961Z,99.90
2019-03-27T17:29:42.522Z,99.90
2019-03-27T17:32:09.235Z,99.90
2019-03-27T17:34:35.949Z,99.90
2019-03-27T17:37:02.274Z,99.90
2019-03-27T17:39:28.760Z,99.90
2019-03-27T17:41:55.249Z,99.90
2019-03-27T17:44:21.986Z,99.90
2019-03-27T17:46:50.129Z,99.90
2019-03-27T17:49:16.569Z,99.90
2019-03-27T17:51:43.182Z,99.90
2019-03-27T17:54:19.954Z,99.90
2019-03-27T17:56:38.275Z,99.90
2019-03-27T17:59:04.945Z,99.90
2019-03-27T18:01:31.550Z,99.90
2019-03-27T18:03:57.913Z,99.90
2019-03-27T18:06:24.417Z,99.90
2019-03-27T18:08:50.917Z,99.90
2019-03-27T18:11:17.421Z,99.90
2019-03-27T18:13:44.027Z,99.90
2019-03-27T18:16:10.505Z,99.90
2019-03-27T18:18:36.941Z,99.90
2019-03-27T18:21:10.819Z,99.90
2019-03-27T18:23:45.733Z,99.90
2019-03-27T18:26:05.637Z,99.90
2019-03-27T18:28:32.236Z,99.90
2019-03-27T18:30:58.746Z,99.90
2019-03-27T18:33:24.988Z,99.90
2019-03-27T18:35:51.618Z,99.90
2019-03-27T18:38:18.046Z,99.90
2019-03-27T18:40:46.695Z,99.90
2019-03-27T18:43:13.521Z,99.90
2019-03-27T18:45:40.002Z,99.90
2019-03-27T18:48:06.572Z,99.90
2019-03-27T18:50:33.132Z,99.90
2019-03-27T18:52:59.620Z,99.90
2019-03-27T18:55:27.210Z,99.90
2019-03-27T18:57:59.899Z,99.90
2019-03-27T19:00:22.479Z,99.90
2019-03-27T19:02:49.039Z,99.90
2019-03-27T19:05:15.486Z,99.90
2019-03-27T19:07:41.778Z,99.90
2019-03-27T19:10:08.463Z,99.90
2019-03-27T19:12:34.830Z,99.90
2019-03-27T19:15:01.322Z,99.90
2019-03-27T19:17:27.786Z,99.90
2019-03-27T19:19:54.054Z,99.90
2019-03-27T19:22:20.561Z,99.90
2019-03-27T19:24:47.175Z,99.90
2019-03-27T19:27:13.761Z,99.90
2019-03-27T19:29:40.329Z,99.90
2019-03-27T19:32:06.808Z,99.90
2019-03-27T19:34:33.252Z,99.90
2019-03-27T19:36:59.694Z,99.90
2019-03-27T19:39:26.211Z,99.90
2019-03-27T19:41:52.787Z,99.90
2019-03-27T19:44:19.292Z,99.90
2019-03-27T19:46:45.759Z,99.90
2019-03-27T19:49:12.238Z,99.90
2019-03-27T19:51:38.862Z,99.90
2019-03-27T19:54:05.458Z,99.90
2019-03-27T19:56:31.958Z,99.90
2019-03-27T19:58:58.333Z,99.90
2019-03-27T20:01:24.831Z,99.90
2019-03-27T20:03:51.405Z,99.90
2019-03-27T20:06:17.907Z,99.90
2019-03-27T20:08:44.411Z,99.90
2019-03-27T20:11:10.909Z,99.90
2019-03-27T20:13:39.357Z,99.90
2019-03-27T20:16:06.031Z,99.90
2019-03-27T20:18:32.643Z,99.90
2019-03-27T20:20:59.183Z,99.90
2019-03-27T20:23:25.672Z,99.90
2019-03-27T20:25:52.188Z,99.90
2019-03-27T20:28:18.773Z,99.90
2019-03-27T20:30:45.165Z,99.90
2019-03-27T20:33:11.754Z,99.90
2019-03-27T20:35:38.189Z,99.90
2019-03-27T20:38:04.760Z,99.90
2019-03-27T20:40:31.366Z,99.90
2019-03-27T20:42:57.734Z,99.90
2019-03-27T20:45:24.268Z,99.90
2019-03-27T20:47:50.677Z,99.90
2019-03-27T20:50:17.361Z,99.90
2019-03-27T20:52:43.864Z,99.90
2019-03-27T20:55:10.357Z,99.90
2019-03-27T20:57:36.965Z,99.90
2019-03-27T21:00:07.244Z,99.90
2019-03-27T21:02:33.677Z,99.90
2019-03-27T21:05:00.370Z,99.90
2019-03-27T21:07:26.845Z,99.90
2019-03-27T21:09:53.537Z,99.90
2019-03-27T21:12:20.092Z,99.90
2019-03-27T21:14:46.665Z,99.90
2019-03-27T21:17:13.123Z,99.90
2019-03-27T21:19:39.658Z,99.90
2019-03-27T21:22:06.169Z,99.90
2019-03-27T21:24:32.511Z,99.90
2019-03-27T21:26:59.172Z,99.90
2019-03-27T21:29:25.707Z,99.90
2019-03-27T21:31:52.222Z,99.90
2019-03-27T21:34:18.618Z,99.90
2019-03-27T21:36:45.094Z,99.90
2019-03-27T21:39:11.512Z,99.90
2019-03-27T21:41:38.167Z,99.90
2019-03-27T21:44:04.660Z,99.90
2019-03-27T21:46:31.186Z,99.90
2019-03-27T21:48:57.526Z,99.90
2019-03-27T21:51:24.010Z,99.90
2019-03-27T21:53:50.896Z,99.90
2019-03-27T21:56:17.418Z,99.90
2019-03-27T21:58:44.067Z,99.90
2019-03-27T22:01:10.454Z,99.90
2019-03-27T22:03:37.042Z,99.90
2019-03-27T22:06:04.496Z,99.90
2019-03-27T22:08:31.023Z,99.90
2019-03-27T22:10:57.550Z,99.90
2019-03-27T22:13:24.073Z,99.90
2019-03-27T22:15:50.908Z,99.90
2019-03-27T22:18:19.062Z,99.90
2019-03-27T22:20:45.704Z,99.90
2019-03-27T22:23:12.267Z,99.90
2019-03-27T22:25:38.649Z,99.90
2019-03-27T22:28:05.029Z,99.90
2019-03-27T22:30:31.478Z,99.90
2019-03-27T22:32:59.091Z,99.90
2019-03-27T22:35:25.583Z,99.90
2019-03-27T22:37:52.152Z,99.90
2019-03-27T22:40:18.408Z,99.90
2019-03-27T22:42:44.989Z,99.90
2019-03-27T22:45:11.585Z,99.90
2019-03-27T22:47:38.097Z,99.90
2019-03-27T22:50:08.017Z,99.90
2019-03-27T22:52:33.739Z,99.90
2019-03-27T22:55:00.376Z,99.90
2019-03-27T22:57:27.141Z,99.90
2019-03-27T22:59:53.751Z,99.90
2019-03-27T23:02:20.347Z,99.90
2019-03-27T23:04:46.865Z,99.90
2019-03-27T23:07:13.365Z,99.90
2019-03-27T23:09:39.777Z,99.90
2019-03-27T23:12:06.506Z,99.90
2019-03-27T23:14:34.871Z,99.90
2019-03-27T23:17:01.469Z,99.90
2019-03-27T23:19:28.022Z,99.90
2019-03-27T23:21:54.425Z,99.90
2019-03-27T23:24:20.983Z,99.90
2019-03-27T23:26:47.448Z,99.90
2019-03-27T23:29:13.954Z,99.90
2019-03-27T23:31:40.445Z,99.90
2019-03-27T23:34:06.745Z,99.90
2019-03-27T23:36:32.993Z,99.90
2019-03-27T23:38:59.383Z,99.90
2019-03-27T23:41:25.950Z,99.90
2019-03-27T23:43:52.533Z,99.90
2019-03-27T23:46:19.172Z,99.90
2019-03-27T23:48:46.412Z,99.90
2019-03-27T23:51:12.815Z,99.90
2019-03-27T23:53:39.330Z,99.90
2019-03-27T23:56:15.852Z,99.90
2019-03-27T23:58:33.944Z,99.90
